HTDAHTZA

Guest
Details From HTDA - MWALIMU JULIUS K NYERERE INTL
To HTZA - ZANZIBAR
Flight Number -
Tags generated
Created
Modified
Stats Distance 41 nm / 76 km
Max Altitude 300 ft / 91 m
Waypoints 3
Social Downloads 6
Likes 0
Share VATSIM

Download

Looking for another format? Having issues loading an existing format? Contact us
Advertisement - Login to hide

Notes

Basic altitude profile: - Ascent Rate: 2000ft/min - Ascent Speed: 300kts - Cruise Altitude: 33000ft - Cruise Speed: 300kts - Descent Rate: 2000ft/min - Descent Speed: 300kts Options: - Use NATs: yes - Use PACOTS: yes - Use low airways: yes - Use high airways: yes

Route

HTDA DV HTZA

ID Type Via Altitude Latitude Longitude Leg Dist Tot Dist Heading (true) Name
O HTDA APT - 0 ft / 0 m -6.87505˚ 39.20426˚ - 0 nm - MWALIMU JULIUS K NYERERE INTL
DV VOR - 300 ft / 91 m -6.88865˚ 39.19271˚ 1 nm 1 nm 220° / 220° DAR ES SALAAM VOR-DME
O HTZA APT - 0 ft / 0 m -6.22202˚ 39.22488˚ 40 nm 41 nm 3° / 3° ZANZIBAR

Altitude Profile

Advertisement - Login to hide

HTDA

Details ICAO HTDA (DAR)
Name MWALIMU JULIUS K NYERERE INTL
Region Tanzania
Timezone Africa/Dar_es_Salaam (UTC+3.0)
Stats Elevation 182 ft / 55 m (AMSL)
Location -6.875048° 39.204265°
Runways 2
Magnetic Variation 2.128° W

METAR

Not found

TAF

TAF HTDA 180500Z 1806/1912 36015KT BKN017 BECMG 1817/1820 SCT018 FEW019CB TEMPO 1821/1824 01005KT RA

Decode

Departure Runways

ID Width Length Bearing (true) Bearing (mag) Surface Threshold Offset Overrun Length
05 151 ft / 46 m 9,868 ft / 3,008 m 44.94° 47.07° Asphalt 0 ft / 0 m 197 ft / 60 m
14 98 ft / 30 m 3,303 ft / 1,007 m 135.15° 137.28° Asphalt 0 ft / 0 m 0 ft / 0 m
23 151 ft / 46 m 9,868 ft / 3,008 m 224.94° 227.07° Asphalt 0 ft / 0 m 197 ft / 60 m
32 98 ft / 30 m 3,303 ft / 1,007 m 315.15° 317.28° Asphalt 0 ft / 0 m 299 ft / 91 m

HTZA

Details ICAO HTZA (ZNZ)
Name ZANZIBAR
Region Tanzania
Timezone Africa/Dar_es_Salaam (UTC+3.0)
Stats Elevation 54 ft / 16 m (AMSL)
Location -6.222024° 39.224885°
Runways 1
Magnetic Variation 1.808° W

METAR

HTZA 180800Z 02010KT 9999 BKN022 30/24 Q1013 NOSIG

Decode

TAF

TAF HTZA 180500Z 1806/1906 36010KT 9999 BKN018 BECMG 1809/1811 05015KT SCT022 BECMG 1817/1819 05005KT BECMG 1900/1902 36010KT BKN015 FEW017CB BKN070 PROB30 TEMPO 1902/1906 TSRA

Decode

Destination Runways

ID Width Length Bearing (true) Bearing (mag) Surface Threshold Offset Overrun Length
18 148 ft / 45 m 8,100 ft / 2,469 m 174.27° 176.08° Asphalt 0 ft / 0 m 0 ft / 0 m
36 148 ft / 45 m 8,100 ft / 2,469 m 354.27° 356.08° Asphalt 0 ft / 0 m 0 ft / 0 m

Popular Alternatives